sensor_id;sensor_type;location;lat;lon;timestamp;P1;durP1;ratioP1;P2;durP2;ratioP2
27566;SDS011;15006;48.584;9.186;2023-09-18T00:01:51;2.88;;;2.63;;
27566;SDS011;15006;48.584;9.186;2023-09-18T00:04:17;2.53;;;2.33;;
27566;SDS011;15006;48.584;9.186;2023-09-18T00:06:43;2.45;;;2.35;;
27566;SDS011;15006;48.584;9.186;2023-09-18T00:09:09;2.95;;;2.75;;
27566;SDS011;15006;48.584;9.186;2023-09-18T00:11:38;2.70;;;2.42;;
27566;SDS011;15006;48.584;9.186;2023-09-18T00:14:06;2.67;;;2.47;;
27566;SDS011;15006;48.584;9.186;2023-09-18T00:16:33;2.40;;;2.25;;
27566;SDS011;15006;48.584;9.186;2023-09-18T00:18:59;2.22;;;2.13;;
27566;SDS011;15006;48.584;9.186;2023-09-18T00:21:26;2.70;;;2.38;;
27566;SDS011;15006;48.584;9.186;2023-09-18T00:23:52;2.30;;;2.20;;
27566;SDS011;15006;48.584;9.186;2023-09-18T00:26:18;2.67;;;2.47;;
27566;SDS011;15006;48.584;9.186;2023-09-18T00:28:44;2.65;;;2.55;;
27566;SDS011;15006;48.584;9.186;2023-09-18T00:31:10;2.35;;;2.25;;
27566;SDS011;15006;48.584;9.186;2023-09-18T00:33:35;2.15;;;2.05;;
27566;SDS011;15006;48.584;9.186;2023-09-18T00:36:02;2.70;;;2.60;;
27566;SDS011;15006;48.584;9.186;2023-09-18T00:38:29;3.00;;;2.30;;
27566;SDS011;15006;48.584;9.186;2023-09-18T00:40:55;2.60;;;2.40;;
27566;SDS011;15006;48.584;9.186;2023-09-18T00:43:21;9.20;;;2.60;;
27566;SDS011;15006;48.584;9.186;2023-09-18T00:45:47;4.35;;;2.65;;
27566;SDS011;15006;48.584;9.186;2023-09-18T00:48:14;2.90;;;2.67;;
27566;SDS011;15006;48.584;9.186;2023-09-18T00:50:41;3.17;;;2.97;;
27566;SDS011;15006;48.584;9.186;2023-09-18T00:53:11;3.38;;;2.80;;
27566;SDS011;15006;48.584;9.186;2023-09-18T00:55:41;2.83;;;2.72;;
27566;SDS011;15006;48.584;9.186;2023-09-18T00:58:07;3.13;;;2.80;;
27566;SDS011;15006;48.584;9.186;2023-09-18T01:00:34;3.05;;;2.80;;
27566;SDS011;15006;48.584;9.186;2023-09-18T01:03:00;2.70;;;2.60;;
27566;SDS011;15006;48.584;9.186;2023-09-18T01:05:30;2.95;;;2.70;;
27566;SDS011;15006;48.584;9.186;2023-09-18T01:07:58;3.42;;;3.05;;
27566;SDS011;15006;48.584;9.186;2023-09-18T01:10:24;2.58;;;2.47;;
27566;SDS011;15006;48.584;9.186;2023-09-18T01:13:01;3.72;;;2.63;;
27566;SDS011;15006;48.584;9.186;2023-09-18T01:15:41;2.50;;;2.40;;
27566;SDS011;15006;48.584;9.186;2023-09-18T01:18:12;4.00;;;2.47;;
27566;SDS011;15006;48.584;9.186;2023-09-18T01:20:39;2.30;;;2.20;;
27566;SDS011;15006;48.584;9.186;2023-09-18T01:23:05;2.35;;;2.25;;
27566;SDS011;15006;48.584;9.186;2023-09-18T01:25:31;2.78;;;2.58;;
27566;SDS011;15006;48.584;9.186;2023-09-18T01:27:58;2.75;;;2.63;;
27566;SDS011;15006;48.584;9.186;2023-09-18T01:30:24;2.63;;;2.53;;
27566;SDS011;15006;48.584;9.186;2023-09-18T01:32:50;2.65;;;2.45;;
27566;SDS011;15006;48.584;9.186;2023-09-18T01:35:17;2.65;;;2.45;;
27566;SDS011;15006;48.584;9.186;2023-09-18T01:37:43;3.00;;;2.70;;
27566;SDS011;15006;48.584;9.186;2023-09-18T01:40:10;3.17;;;2.58;;
27566;SDS011;15006;48.584;9.186;2023-09-18T01:42:37;4.00;;;2.88;;
27566;SDS011;15006;48.584;9.186;2023-09-18T01:45:03;2.97;;;2.78;;
27566;SDS011;15006;48.584;9.186;2023-09-18T01:47:31;2.85;;;2.65;;
27566;SDS011;15006;48.584;9.186;2023-09-18T01:49:57;3.30;;;3.05;;
27566;SDS011;15006;48.584;9.186;2023-09-18T01:52:23;4.10;;;2.95;;
27566;SDS011;15006;48.584;9.186;2023-09-18T01:54:49;3.28;;;2.30;;
27566;SDS011;15006;48.584;9.186;2023-09-18T01:57:15;9.48;;;2.47;;
27566;SDS011;15006;48.584;9.186;2023-09-18T01:59:41;4.63;;;2.70;;
27566;SDS011;15006;48.584;9.186;2023-09-18T02:02:07;2.38;;;2.17;;
27566;SDS011;15006;48.584;9.186;2023-09-18T02:04:34;6.25;;;2.50;;
27566;SDS011;15006;48.584;9.186;2023-09-18T02:07:02;2.30;;;2.10;;
27566;SDS011;15006;48.584;9.186;2023-09-18T02:09:28;3.42;;;2.22;;
27566;SDS011;15006;48.584;9.186;2023-09-18T02:11:54;2.30;;;2.10;;
27566;SDS011;15006;48.584;9.186;2023-09-18T02:14:20;2.50;;;2.30;;
27566;SDS011;15006;48.584;9.186;2023-09-18T02:16:46;5.75;;;2.33;;
27566;SDS011;15006;48.584;9.186;2023-09-18T02:19:14;2.50;;;2.30;;
27566;SDS011;15006;48.584;9.186;2023-09-18T02:21:40;3.40;;;2.30;;
27566;SDS011;15006;48.584;9.186;2023-09-18T02:24:07;2.30;;;2.10;;
27566;SDS011;15006;48.584;9.186;2023-09-18T02:26:33;2.60;;;2.40;;
27566;SDS011;15006;48.584;9.186;2023-09-18T02:28:59;6.28;;;3.00;;
27566;SDS011;15006;48.584;9.186;2023-09-18T02:31:27;3.03;;;2.80;;
27566;SDS011;15006;48.584;9.186;2023-09-18T02:33:53;5.07;;;2.70;;
27566;SDS011;15006;48.584;9.186;2023-09-18T02:36:19;4.93;;;2.85;;
27566;SDS011;15006;48.584;9.186;2023-09-18T02:38:45;5.78;;;2.83;;
27566;SDS011;15006;48.584;9.186;2023-09-18T02:41:11;6.88;;;2.83;;
27566;SDS011;15006;48.584;9.186;2023-09-18T02:43:37;5.85;;;2.78;;
27566;SDS011;15006;48.584;9.186;2023-09-18T02:46:03;4.90;;;2.75;;
27566;SDS011;15006;48.584;9.186;2023-09-18T02:48:33;6.32;;;2.58;;
27566;SDS011;15006;48.584;9.186;2023-09-18T02:51:00;2.85;;;2.65;;
27566;SDS011;15006;48.584;9.186;2023-09-18T02:53:26;4.05;;;3.13;;
27566;SDS011;15006;48.584;9.186;2023-09-18T02:55:54;4.05;;;3.10;;
27566;SDS011;15006;48.584;9.186;2023-09-18T02:58:21;3.72;;;2.80;;
27566;SDS011;15006;48.584;9.186;2023-09-18T03:00:48;3.15;;;2.80;;
27566;SDS011;15006;48.584;9.186;2023-09-18T03:03:15;3.22;;;2.72;;
27566;SDS011;15006;48.584;9.186;2023-09-18T03:05:43;4.07;;;2.80;;
27566;SDS011;15006;48.584;9.186;2023-09-18T03:08:10;2.75;;;2.60;;
27566;SDS011;15006;48.584;9.186;2023-09-18T03:10:38;2.72;;;2.50;;
27566;SDS011;15006;48.584;9.186;2023-09-18T03:13:06;3.75;;;2.53;;
27566;SDS011;15006;48.584;9.186;2023-09-18T03:15:33;5.90;;;2.80;;
27566;SDS011;15006;48.584;9.186;2023-09-18T03:18:00;2.60;;;2.40;;
27566;SDS011;15006;48.584;9.186;2023-09-18T03:20:28;3.85;;;2.45;;
27566;SDS011;15006;48.584;9.186;2023-09-18T03:22:56;4.28;;;2.60;;
27566;SDS011;15006;48.584;9.186;2023-09-18T03:25:26;5.72;;;2.80;;
27566;SDS011;15006;48.584;9.186;2023-09-18T03:27:54;3.22;;;2.83;;
27566;SDS011;15006;48.584;9.186;2023-09-18T03:30:23;2.90;;;2.70;;
27566;SDS011;15006;48.584;9.186;2023-09-18T03:32:50;3.50;;;2.97;;
27566;SDS011;15006;48.584;9.186;2023-09-18T03:35:16;3.55;;;2.80;;
27566;SDS011;15006;48.584;9.186;2023-09-18T03:37:51;6.32;;;3.25;;
27566;SDS011;15006;48.584;9.186;2023-09-18T03:40:19;4.97;;;3.20;;
27566;SDS011;15006;48.584;9.186;2023-09-18T03:42:46;3.08;;;2.88;;
27566;SDS011;15006;48.584;9.186;2023-09-18T03:45:12;4.13;;;2.97;;
27566;SDS011;15006;48.584;9.186;2023-09-18T03:47:39;9.15;;;3.05;;
27566;SDS011;15006;48.584;9.186;2023-09-18T03:50:07;5.45;;;3.00;;
27566;SDS011;15006;48.584;9.186;2023-09-18T03:52:37;9.20;;;3.22;;
27566;SDS011;15006;48.584;9.186;2023-09-18T03:55:08;3.78;;;2.85;;
27566;SDS011;15006;48.584;9.186;2023-09-18T03:57:34;2.70;;;2.60;;
27566;SDS011;15006;48.584;9.186;2023-09-18T04:00:02;6.57;;;2.65;;
27566;SDS011;15006;48.584;9.186;2023-09-18T04:02:30;5.45;;;3.10;;
27566;SDS011;15006;48.584;9.186;2023-09-18T04:04:56;3.78;;;2.40;;
27566;SDS011;15006;48.584;9.186;2023-09-18T04:07:22;7.90;;;2.50;;
27566;SDS011;15006;48.584;9.186;2023-09-18T04:09:48;3.35;;;2.75;;
27566;SDS011;15006;48.584;9.186;2023-09-18T04:12:14;6.93;;;2.75;;
27566;SDS011;15006;48.584;9.186;2023-09-18T04:14:40;7.10;;;2.92;;
27566;SDS011;15006;48.584;9.186;2023-09-18T04:17:06;2.20;;;1.98;;
27566;SDS011;15006;48.584;9.186;2023-09-18T04:19:32;4.07;;;2.33;;
27566;SDS011;15006;48.584;9.186;2023-09-18T04:21:58;5.07;;;2.50;;
27566;SDS011;15006;48.584;9.186;2023-09-18T04:24:25;2.90;;;2.47;;
27566;SDS011;15006;48.584;9.186;2023-09-18T04:26:51;3.45;;;2.33;;
27566;SDS011;15006;48.584;9.186;2023-09-18T04:29:21;4.70;;;2.53;;
27566;SDS011;15006;48.584;9.186;2023-09-18T04:31:47;2.92;;;2.20;;
27566;SDS011;15006;48.584;9.186;2023-09-18T04:34:13;3.55;;;2.47;;
27566;SDS011;15006;48.584;9.186;2023-09-18T04:36:39;2.40;;;2.20;;
27566;SDS011;15006;48.584;9.186;2023-09-18T04:39:05;8.00;;;2.53;;
27566;SDS011;15006;48.584;9.186;2023-09-18T04:41:32;6.85;;;2.58;;
27566;SDS011;15006;48.584;9.186;2023-09-18T04:43:59;4.18;;;2.88;;
27566;SDS011;15006;48.584;9.186;2023-09-18T04:46:25;4.30;;;2.55;;
27566;SDS011;15006;48.584;9.186;2023-09-18T04:48:51;2.83;;;2.58;;
27566;SDS011;15006;48.584;9.186;2023-09-18T04:51:17;9.43;;;2.55;;
27566;SDS011;15006;48.584;9.186;2023-09-18T04:53:43;4.15;;;2.88;;
27566;SDS011;15006;48.584;9.186;2023-09-18T04:56:09;5.10;;;2.80;;
27566;SDS011;15006;48.584;9.186;2023-09-18T04:58:38;2.80;;;2.58;;
27566;SDS011;15006;48.584;9.186;2023-09-18T05:01:04;8.20;;;2.25;;
27566;SDS011;15006;48.584;9.186;2023-09-18T05:03:34;5.38;;;2.40;;
27566;SDS011;15006;48.584;9.186;2023-09-18T05:06:04;6.10;;;2.45;;
27566;SDS011;15006;48.584;9.186;2023-09-18T05:08:29;2.90;;;2.55;;
27566;SDS011;15006;48.584;9.186;2023-09-18T05:10:58;5.68;;;2.40;;
27566;SDS011;15006;48.584;9.186;2023-09-18T05:13:28;5.68;;;2.42;;
27566;SDS011;15006;48.584;9.186;2023-09-18T05:15:54;2.95;;;2.65;;
27566;SDS011;15006;48.584;9.186;2023-09-18T05:18:20;3.08;;;2.40;;
27566;SDS011;15006;48.584;9.186;2023-09-18T05:20:46;2.70;;;2.50;;
27566;SDS011;15006;48.584;9.186;2023-09-18T05:23:13;9.32;;;2.72;;
27566;SDS011;15006;48.584;9.186;2023-09-18T05:25:39;4.38;;;2.63;;
27566;SDS011;15006;48.584;9.186;2023-09-18T05:28:07;3.28;;;2.67;;
27566;SDS011;15006;48.584;9.186;2023-09-18T05:30:34;2.83;;;2.60;;
27566;SDS011;15006;48.584;9.186;2023-09-18T05:33:03;6.20;;;2.45;;
27566;SDS011;15006;48.584;9.186;2023-09-18T05:35:31;4.68;;;2.75;;
27566;SDS011;15006;48.584;9.186;2023-09-18T05:37:58;4.63;;;2.40;;
27566;SDS011;15006;48.584;9.186;2023-09-18T05:40:25;5.60;;;2.38;;
27566;SDS011;15006;48.584;9.186;2023-09-18T05:42:53;4.85;;;2.10;;
27566;SDS011;15006;48.584;9.186;2023-09-18T05:45:20;4.88;;;2.42;;
27566;SDS011;15006;48.584;9.186;2023-09-18T05:47:46;3.80;;;2.47;;
27566;SDS011;15006;48.584;9.186;2023-09-18T05:50:13;5.10;;;2.75;;
27566;SDS011;15006;48.584;9.186;2023-09-18T05:52:41;2.40;;;2.20;;
27566;SDS011;15006;48.584;9.186;2023-09-18T05:55:11;4.97;;;2.42;;
27566;SDS011;15006;48.584;9.186;2023-09-18T05:57:39;3.75;;;2.42;;
27566;SDS011;15006;48.584;9.186;2023-09-18T06:00:05;9.27;;;2.38;;
27566;SDS011;15006;48.584;9.186;2023-09-18T06:02:32;3.88;;;2.22;;
27566;SDS011;15006;48.584;9.186;2023-09-18T06:04:58;9.15;;;2.72;;
27566;SDS011;15006;48.584;9.186;2023-09-18T06:07:26;3.83;;;1.90;;
27566;SDS011;15006;48.584;9.186;2023-09-18T06:09:58;2.45;;;2.00;;
27566;SDS011;15006;48.584;9.186;2023-09-18T06:12:24;6.72;;;2.60;;
27566;SDS011;15006;48.584;9.186;2023-09-18T06:14:51;5.57;;;2.45;;
27566;SDS011;15006;48.584;9.186;2023-09-18T06:17:17;4.95;;;2.13;;
27566;SDS011;15006;48.584;9.186;2023-09-18T06:19:44;6.15;;;2.30;;
27566;SDS011;15006;48.584;9.186;2023-09-18T06:22:11;6.45;;;1.92;;
27566;SDS011;15006;48.584;9.186;2023-09-18T06:24:37;4.63;;;1.67;;
27566;SDS011;15006;48.584;9.186;2023-09-18T06:27:04;9.00;;;2.00;;
27566;SDS011;15006;48.584;9.186;2023-09-18T06:29:33;6.45;;;1.67;;
27566;SDS011;15006;48.584;9.186;2023-09-18T06:31:59;6.97;;;2.10;;
27566;SDS011;15006;48.584;9.186;2023-09-18T06:34:26;3.88;;;1.83;;
27566;SDS011;15006;48.584;9.186;2023-09-18T06:36:53;7.50;;;1.88;;
27566;SDS011;15006;48.584;9.186;2023-09-18T06:41:45;6.88;;;2.10;;
27566;SDS011;15006;48.584;9.186;2023-09-18T06:44:11;7.70;;;1.70;;
27566;SDS011;15006;48.584;9.186;2023-09-18T06:46:42;6.78;;;1.85;;
27566;SDS011;15006;48.584;9.186;2023-09-18T06:49:08;6.07;;;1.75;;
27566;SDS011;15006;48.584;9.186;2023-09-18T06:51:35;6.85;;;1.80;;
27566;SDS011;15006;48.584;9.186;2023-09-18T06:54:01;7.15;;;1.60;;
27566;SDS011;15006;48.584;9.186;2023-09-18T06:56:28;6.20;;;1.80;;
27566;SDS011;15006;48.584;9.186;2023-09-18T06:58:54;5.43;;;1.75;;
27566;SDS011;15006;48.584;9.186;2023-09-18T07:01:21;6.93;;;1.92;;
27566;SDS011;15006;48.584;9.186;2023-09-18T07:03:49;4.60;;;1.85;;
27566;SDS011;15006;48.584;9.186;2023-09-18T07:06:15;6.57;;;1.67;;
27566;SDS011;15006;48.584;9.186;2023-09-18T07:08:43;5.70;;;2.03;;
27566;SDS011;15006;48.584;9.186;2023-09-18T07:13:41;6.93;;;1.67;;
27566;SDS011;15006;48.584;9.186;2023-09-18T07:16:08;10.52;;;2.25;;
27566;SDS011;15006;48.584;9.186;2023-09-18T07:18:35;7.40;;;1.65;;
27566;SDS011;15006;48.584;9.186;2023-09-18T07:21:01;5.60;;;1.90;;
27566;SDS011;15006;48.584;9.186;2023-09-18T07:23:27;7.45;;;1.73;;
27566;SDS011;15006;48.584;9.186;2023-09-18T07:25:53;5.32;;;1.50;;
27566;SDS011;15006;48.584;9.186;2023-09-18T07:28:19;3.58;;;1.35;;
27566;SDS011;15006;48.584;9.186;2023-09-18T07:30:48;6.95;;;1.52;;
27566;SDS011;15006;48.584;9.186;2023-09-18T07:33:14;3.40;;;1.77;;
27566;SDS011;15006;48.584;9.186;2023-09-18T07:35:45;3.65;;;1.52;;
27566;SDS011;15006;48.584;9.186;2023-09-18T07:38:17;5.65;;;1.60;;
27566;SDS011;15006;48.584;9.186;2023-09-18T07:40:46;3.58;;;1.50;;
27566;SDS011;15006;48.584;9.186;2023-09-18T07:43:12;4.22;;;1.70;;
27566;SDS011;15006;48.584;9.186;2023-09-18T07:45:39;3.30;;;1.52;;
27566;SDS011;15006;48.584;9.186;2023-09-18T07:48:06;3.42;;;1.27;;
27566;SDS011;15006;48.584;9.186;2023-09-18T07:50:35;7.07;;;1.70;;
27566;SDS011;15006;48.584;9.186;2023-09-18T07:53:01;4.60;;;1.63;;
27566;SDS011;15006;48.584;9.186;2023-09-18T07:55:28;3.33;;;1.60;;
27566;SDS011;15006;48.584;9.186;2023-09-18T07:57:55;4.50;;;1.40;;
27566;SDS011;15006;48.584;9.186;2023-09-18T08:00:21;3.75;;;1.20;;
27566;SDS011;15006;48.584;9.186;2023-09-18T08:02:48;4.20;;;1.17;;
27566;SDS011;15006;48.584;9.186;2023-09-18T08:05:16;2.83;;;1.38;;
27566;SDS011;15006;48.584;9.186;2023-09-18T08:07:42;6.15;;;1.60;;
27566;SDS011;15006;48.584;9.186;2023-09-18T08:10:08;6.75;;;1.48;;
27566;SDS011;15006;48.584;9.186;2023-09-18T08:12:35;3.13;;;1.30;;
27566;SDS011;15006;48.584;9.186;2023-09-18T08:15:01;4.68;;;1.65;;
27566;SDS011;15006;48.584;9.186;2023-09-18T08:17:28;8.77;;;1.95;;
27566;SDS011;15006;48.584;9.186;2023-09-18T08:19:56;4.60;;;1.75;;
27566;SDS011;15006;48.584;9.186;2023-09-18T08:22:24;4.32;;;1.90;;
27566;SDS011;15006;48.584;9.186;2023-09-18T08:24:50;6.20;;;1.55;;
27566;SDS011;15006;48.584;9.186;2023-09-18T08:27:18;3.08;;;1.40;;
27566;SDS011;15006;48.584;9.186;2023-09-18T08:29:47;1.80;;;1.08;;
27566;SDS011;15006;48.584;9.186;2023-09-18T08:32:13;2.42;;;1.27;;
27566;SDS011;15006;48.584;9.186;2023-09-18T08:34:39;2.50;;;1.15;;
27566;SDS011;15006;48.584;9.186;2023-09-18T08:37:08;2.67;;;1.17;;
27566;SDS011;15006;48.584;9.186;2023-09-18T08:39:34;7.00;;;1.20;;
27566;SDS011;15006;48.584;9.186;2023-09-18T08:42:05;3.85;;;0.98;;
27566;SDS011;15006;48.584;9.186;2023-09-18T08:44:34;10.48;;;1.75;;
27566;SDS011;15006;48.584;9.186;2023-09-18T08:47:05;2.42;;;1.27;;
27566;SDS011;15006;48.584;9.186;2023-09-18T08:49:34;3.42;;;0.93;;
27566;SDS011;15006;48.584;9.186;2023-09-18T08:52:00;2.95;;;1.15;;
27566;SDS011;15006;48.584;9.186;2023-09-18T08:54:27;4.88;;;1.38;;
27566;SDS011;15006;48.584;9.186;2023-09-18T08:56:54;5.80;;;1.60;;
27566;SDS011;15006;48.584;9.186;2023-09-18T08:59:23;3.63;;;1.30;;
27566;SDS011;15006;48.584;9.186;2023-09-18T09:04:17;3.80;;;1.42;;
27566;SDS011;15006;48.584;9.186;2023-09-18T09:06:43;5.13;;;1.10;;
27566;SDS011;15006;48.584;9.186;2023-09-18T09:09:09;4.60;;;0.95;;
27566;SDS011;15006;48.584;9.186;2023-09-18T09:11:38;1.75;;;1.00;;
27566;SDS011;15006;48.584;9.186;2023-09-18T09:14:11;2.63;;;1.00;;
27566;SDS011;15006;48.584;9.186;2023-09-18T09:16:47;1.88;;;1.10;;
27566;SDS011;15006;48.584;9.186;2023-09-18T09:19:30;2.95;;;1.20;;
27566;SDS011;15006;48.584;9.186;2023-09-18T09:22:07;3.00;;;1.20;;
27566;SDS011;15006;48.584;9.186;2023-09-18T09:24:41;4.07;;;1.10;;
27566;SDS011;15006;48.584;9.186;2023-09-18T09:27:09;3.50;;;1.20;;
27566;SDS011;15006;48.584;9.186;2023-09-18T09:29:36;2.08;;;1.23;;
27566;SDS011;15006;48.584;9.186;2023-09-18T09:32:15;4.07;;;1.05;;
27566;SDS011;15006;48.584;9.186;2023-09-18T09:34:43;4.30;;;1.10;;
27566;SDS011;15006;48.584;9.186;2023-09-18T09:37:10;4.22;;;1.00;;
27566;SDS011;15006;48.584;9.186;2023-09-18T09:42:38;1.10;;;0.85;;
27566;SDS011;15006;48.584;9.186;2023-09-18T09:45:11;1.00;;;0.88;;
27566;SDS011;15006;48.584;9.186;2023-09-18T09:47:41;1.30;;;0.80;;
27566;SDS011;15006;48.584;9.186;2023-09-18T09:50:08;4.82;;;1.30;;
27566;SDS011;15006;48.584;9.186;2023-09-18T09:52:48;2.33;;;0.90;;
27566;SDS011;15006;48.584;9.186;2023-09-18T09:55:23;4.72;;;1.08;;
27566;SDS011;15006;48.584;9.186;2023-09-18T09:57:59;1.83;;;0.95;;
27566;SDS011;15006;48.584;9.186;2023-09-18T10:00:32;3.50;;;0.75;;
27566;SDS011;15006;48.584;9.186;2023-09-18T10:03:07;1.67;;;0.80;;
27566;SDS011;15006;48.584;9.186;2023-09-18T10:05:36;1.83;;;0.90;;
27566;SDS011;15006;48.584;9.186;2023-09-18T10:08:08;1.17;;;0.80;;
27566;SDS011;15006;48.584;9.186;2023-09-18T10:10:54;2.37;;;1.40;;
27566;SDS011;15006;48.584;9.186;2023-09-18T10:13:33;1.35;;;0.82;;
27566;SDS011;15006;48.584;9.186;2023-09-18T10:16:25;1.20;;;0.80;;
27566;SDS011;15006;48.584;9.186;2023-09-18T10:21:41;2.63;;;0.77;;
27566;SDS011;15006;48.584;9.186;2023-09-18T10:24:51;1.17;;;0.85;;
27566;SDS011;15006;48.584;9.186;2023-09-18T10:27:29;1.40;;;0.70;;
27566;SDS011;15006;48.584;9.186;2023-09-18T10:29:56;1.10;;;0.77;;
27566;SDS011;15006;48.584;9.186;2023-09-18T10:32:24;1.05;;;0.80;;
27566;SDS011;15006;48.584;9.186;2023-09-18T10:34:53;0.95;;;0.85;;
27566;SDS011;15006;48.584;9.186;2023-09-18T10:37:19;3.55;;;0.90;;
27566;SDS011;15006;48.584;9.186;2023-09-18T10:39:47;2.40;;;1.50;;
27566;SDS011;15006;48.584;9.186;2023-09-18T10:42:14;1.80;;;0.95;;
27566;SDS011;15006;48.584;9.186;2023-09-18T10:44:42;1.73;;;0.70;;
27566;SDS011;15006;48.584;9.186;2023-09-18T10:47:09;1.50;;;1.10;;
27566;SDS011;15006;48.584;9.186;2023-09-18T10:49:36;3.45;;;0.85;;
27566;SDS011;15006;48.584;9.186;2023-09-18T10:52:03;2.47;;;0.73;;
27566;SDS011;15006;48.584;9.186;2023-09-18T10:54:30;0.85;;;0.73;;
27566;SDS011;15006;48.584;9.186;2023-09-18T10:56:57;1.67;;;1.10;;
27566;SDS011;15006;48.584;9.186;2023-09-18T10:59:23;1.52;;;0.85;;
27566;SDS011;15006;48.584;9.186;2023-09-18T11:01:49;1.10;;;0.77;;
27566;SDS011;15006;48.584;9.186;2023-09-18T11:04:19;1.15;;;0.70;;
27566;SDS011;15006;48.584;9.186;2023-09-18T11:11:54;1.70;;;0.73;;
27566;SDS011;15006;48.584;9.186;2023-09-18T11:17:42;1.65;;;0.82;;
27566;SDS011;15006;48.584;9.186;2023-09-18T11:22:58;0.80;;;0.70;;
27566;SDS011;15006;48.584;9.186;2023-09-18T11:25:45;1.17;;;0.60;;
27566;SDS011;15006;48.584;9.186;2023-09-18T11:28:16;1.05;;;0.70;;
27566;SDS011;15006;48.584;9.186;2023-09-18T11:30:50;1.08;;;0.90;;
27566;SDS011;15006;48.584;9.186;2023-09-18T11:33:31;2.00;;;1.05;;
27566;SDS011;15006;48.584;9.186;2023-09-18T11:36:01;3.58;;;0.80;;
27566;SDS011;15006;48.584;9.186;2023-09-18T11:38:53;3.80;;;0.95;;
27566;SDS011;15006;48.584;9.186;2023-09-18T11:41:28;2.55;;;0.68;;
27566;SDS011;15006;48.584;9.186;2023-09-18T11:44:31;2.55;;;0.90;;
27566;SDS011;15006;48.584;9.186;2023-09-18T11:46:52;1.98;;;0.90;;
27566;SDS011;15006;48.584;9.186;2023-09-18T11:49:22;0.63;;;0.63;;
27566;SDS011;15006;48.584;9.186;2023-09-18T11:51:53;1.48;;;1.00;;
27566;SDS011;15006;48.584;9.186;2023-09-18T11:54:20;2.20;;;0.80;;
27566;SDS011;15006;48.584;9.186;2023-09-18T11:56:46;1.58;;;0.88;;
27566;SDS011;15006;48.584;9.186;2023-09-18T11:59:13;2.25;;;1.08;;
27566;SDS011;15006;48.584;9.186;2023-09-18T12:01:39;1.42;;;0.90;;
27566;SDS011;15006;48.584;9.186;2023-09-18T12:04:05;1.20;;;0.77;;
27566;SDS011;15006;48.584;9.186;2023-09-18T12:06:35;0.77;;;0.77;;
27566;SDS011;15006;48.584;9.186;2023-09-18T12:09:01;1.35;;;1.00;;
27566;SDS011;15006;48.584;9.186;2023-09-18T12:11:29;1.58;;;1.00;;
27566;SDS011;15006;48.584;9.186;2023-09-18T12:13:55;2.03;;;0.77;;
27566;SDS011;15006;48.584;9.186;2023-09-18T12:16:23;0.80;;;0.80;;
27566;SDS011;15006;48.584;9.186;2023-09-18T12:18:49;1.65;;;0.70;;
27566;SDS011;15006;48.584;9.186;2023-09-18T12:21:15;0.73;;;0.60;;
27566;SDS011;15006;48.584;9.186;2023-09-18T12:23:45;1.37;;;0.77;;
27566;SDS011;15006;48.584;9.186;2023-09-18T12:26:12;1.98;;;1.00;;
27566;SDS011;15006;48.584;9.186;2023-09-18T12:28:40;1.00;;;0.85;;
27566;SDS011;15006;48.584;9.186;2023-09-18T12:33:40;2.05;;;1.27;;
27566;SDS011;15006;48.584;9.186;2023-09-18T12:36:12;1.75;;;0.85;;
27566;SDS011;15006;48.584;9.186;2023-09-18T12:38:48;1.52;;;0.90;;
27566;SDS011;15006;48.584;9.186;2023-09-18T12:41:24;2.17;;;0.90;;
27566;SDS011;15006;48.584;9.186;2023-09-18T12:43:50;4.40;;;1.15;;
27566;SDS011;15006;48.584;9.186;2023-09-18T12:46:17;0.88;;;0.65;;
27566;SDS011;15006;48.584;9.186;2023-09-18T12:48:44;0.88;;;0.73;;
27566;SDS011;15006;48.584;9.186;2023-09-18T12:51:11;1.23;;;0.80;;
27566;SDS011;15006;48.584;9.186;2023-09-18T12:53:39;1.88;;;0.63;;
27566;SDS011;15006;48.584;9.186;2023-09-18T12:56:09;1.42;;;0.55;;
27566;SDS011;15006;48.584;9.186;2023-09-18T12:58:41;0.70;;;0.63;;
27566;SDS011;15006;48.584;9.186;2023-09-18T13:01:10;0.98;;;0.70;;
27566;SDS011;15006;48.584;9.186;2023-09-18T13:03:43;0.85;;;0.75;;
27566;SDS011;15006;48.584;9.186;2023-09-18T13:06:18;0.85;;;0.70;;
27566;SDS011;15006;48.584;9.186;2023-09-18T13:08:44;1.98;;;0.80;;
27566;SDS011;15006;48.584;9.186;2023-09-18T13:11:12;1.75;;;0.40;;
27566;SDS011;15006;48.584;9.186;2023-09-18T13:13:40;6.82;;;0.85;;
27566;SDS011;15006;48.584;9.186;2023-09-18T13:16:06;1.38;;;0.65;;
27566;SDS011;15006;48.584;9.186;2023-09-18T13:18:36;2.90;;;0.82;;
27566;SDS011;15006;48.584;9.186;2023-09-18T13:21:08;2.03;;;0.60;;
27566;SDS011;15006;48.584;9.186;2023-09-18T13:23:36;2.03;;;0.63;;
27566;SDS011;15006;48.584;9.186;2023-09-18T13:26:03;0.88;;;0.63;;
27566;SDS011;15006;48.584;9.186;2023-09-18T13:28:33;1.77;;;0.80;;
27566;SDS011;15006;48.584;9.186;2023-09-18T13:31:01;5.63;;;0.73;;
27566;SDS011;15006;48.584;9.186;2023-09-18T13:33:32;1.38;;;0.73;;
27566;SDS011;15006;48.584;9.186;2023-09-18T13:35:59;3.28;;;0.77;;
27566;SDS011;15006;48.584;9.186;2023-09-18T13:38:25;1.00;;;0.60;;
27566;SDS011;15006;48.584;9.186;2023-09-18T13:40:54;0.73;;;0.60;;
27566;SDS011;15006;48.584;9.186;2023-09-18T13:43:20;1.05;;;0.70;;
27566;SDS011;15006;48.584;9.186;2023-09-18T13:45:49;0.75;;;0.50;;
27566;SDS011;15006;48.584;9.186;2023-09-18T13:48:19;1.77;;;0.70;;
27566;SDS011;15006;48.584;9.186;2023-09-18T13:50:46;1.27;;;0.60;;
27566;SDS011;15006;48.584;9.186;2023-09-18T13:53:13;1.40;;;0.60;;
27566;SDS011;15006;48.584;9.186;2023-09-18T13:55:40;1.52;;;0.68;;
27566;SDS011;15006;48.584;9.186;2023-09-18T13:58:06;3.10;;;0.60;;
27566;SDS011;15006;48.584;9.186;2023-09-18T14:00:32;0.90;;;0.73;;
27566;SDS011;15006;48.584;9.186;2023-09-18T14:02:58;0.80;;;0.50;;
27566;SDS011;15006;48.584;9.186;2023-09-18T14:05:24;1.58;;;0.70;;
27566;SDS011;15006;48.584;9.186;2023-09-18T14:07:52;0.80;;;0.73;;
27566;SDS011;15006;48.584;9.186;2023-09-18T14:10:22;1.10;;;0.50;;
27566;SDS011;15006;48.584;9.186;2023-09-18T14:12:48;1.42;;;0.60;;
27566;SDS011;15006;48.584;9.186;2023-09-18T14:15:15;2.22;;;0.68;;
27566;SDS011;15006;48.584;9.186;2023-09-18T14:17:41;1.38;;;0.50;;
27566;SDS011;15006;48.584;9.186;2023-09-18T14:20:07;1.83;;;0.50;;
27566;SDS011;15006;48.584;9.186;2023-09-18T14:22:34;0.60;;;0.40;;
27566;SDS011;15006;48.584;9.186;2023-09-18T14:25:01;0.63;;;0.47;;
27566;SDS011;15006;48.584;9.186;2023-09-18T14:27:33;1.00;;;0.60;;
27566;SDS011;15006;48.584;9.186;2023-09-18T14:30:00;1.70;;;0.65;;
27566;SDS011;15006;48.584;9.186;2023-09-18T14:34:58;1.30;;;0.80;;
27566;SDS011;15006;48.584;9.186;2023-09-18T14:37:27;1.08;;;0.45;;
27566;SDS011;15006;48.584;9.186;2023-09-18T14:39:53;2.05;;;0.70;;
27566;SDS011;15006;48.584;9.186;2023-09-18T14:42:19;2.28;;;0.90;;
27566;SDS011;15006;48.584;9.186;2023-09-18T14:44:45;2.10;;;0.50;;
27566;SDS011;15006;48.584;9.186;2023-09-18T14:47:14;1.10;;;0.70;;
27566;SDS011;15006;48.584;9.186;2023-09-18T14:49:41;1.98;;;0.60;;
27566;SDS011;15006;48.584;9.186;2023-09-18T14:52:12;1.38;;;0.65;;
27566;SDS011;15006;48.584;9.186;2023-09-18T14:54:40;1.52;;;0.47;;
27566;SDS011;15006;48.584;9.186;2023-09-18T14:57:06;1.00;;;0.90;;
27566;SDS011;15006;48.584;9.186;2023-09-18T14:59:32;1.80;;;0.70;;
27566;SDS011;15006;48.584;9.186;2023-09-18T15:01:58;0.73;;;0.70;;
27566;SDS011;15006;48.584;9.186;2023-09-18T15:04:24;0.77;;;0.57;;
27566;SDS011;15006;48.584;9.186;2023-09-18T15:06:50;0.88;;;0.60;;
27566;SDS011;15006;48.584;9.186;2023-09-18T15:09:16;0.90;;;0.60;;
27566;SDS011;15006;48.584;9.186;2023-09-18T15:11:43;3.30;;;0.75;;
27566;SDS011;15006;48.584;9.186;2023-09-18T15:14:09;2.35;;;0.95;;
27566;SDS011;15006;48.584;9.186;2023-09-18T15:16:35;4.38;;;0.52;;
27566;SDS011;15006;48.584;9.186;2023-09-18T15:19:01;2.63;;;0.88;;
27566;SDS011;15006;48.584;9.186;2023-09-18T15:21:29;1.60;;;0.80;;
27566;SDS011;15006;48.584;9.186;2023-09-18T15:23:55;0.75;;;0.65;;